Map

Track Data

SID SEASON NUMBER BASIN SUBBASIN NAME ISO_TIME NATURE LAT LON WMO_WIND WMO_PRES WMO_AGENCY TRACK_TYPE DIST2LAND LANDFALL IFLAG USA_AGENCY USA_ATCF_ID USA_LAT USA_LON USA_RECORD USA_STATUS USA_WIND USA_PRES USA_SSHS USA_R34_NE USA_R34_SE USA_R34_SW USA_R34_NW USA_R50_NE USA_R50_SE USA_R50_SW USA_R50_NW USA_R64_NE USA_R64_SE USA_R64_SW USA_R64_NW USA_POCI USA_ROCI USA_RMW USA_EYE TOKYO_LAT TOKYO_LON TOKYO_GRADE TOKYO_WIND TOKYO_PRES TOKYO_R50_DIR TOKYO_R50_LONG TOKYO_R50_SHORT TOKYO_R30_DIR TOKYO_R30_LONG TOKYO_R30_SHORT TOKYO_LAND CMA_LAT CMA_LON CMA_CAT CMA_WIND CMA_PRES HKO_LAT HKO_LON HKO_CAT HKO_WIND HKO_PRES NEWDELHI_LAT NEWDELHI_LON NEWDELHI_GRADE NEWDELHI_WIND NEWDELHI_PRES NEWDELHI_CI NEWDELHI_DP NEWDELHI_POCI REUNION_LAT REUNION_LON REUNION_TYPE REUNION_WIND REUNION_PRES REUNION_TNUM REUNION_CI REUNION_RMW REUNION_R34_NE REUNION_R34_SE REUNION_R34_SW REUNION_R34_NW REUNION_R50_NE REUNION_R50_SE REUNION_R50_SW REUNION_R50_NW REUNION_R64_NE REUNION_R64_SE REUNION_R64_SW REUNION_R64_NW BOM_LAT BOM_LON BOM_TYPE BOM_WIND BOM_PRES BOM_TNUM BOM_CI BOM_RMW BOM_R34_NE BOM_R34_SE BOM_R34_SW BOM_R34_NW BOM_R50_NE BOM_R50_SE BOM_R50_SW BOM_R50_NW BOM_R64_NE BOM_R64_SE BOM_R64_SW BOM_R64_NW BOM_ROCI BOM_POCI BOM_EYE BOM_POS_METHOD BOM_PRES_METHOD NADI_LAT NADI_LON NADI_CAT NADI_WIND NADI_PRES WELLINGTON_LAT WELLINGTON_LON WELLINGTON_WIND WELLINGTON_PRES DS824_LAT DS824_LON DS824_STAGE DS824_WIND DS824_PRES TD9636_LAT TD9636_LON TD9636_STAGE TD9636_WIND TD9636_PRES TD9635_LAT TD9635_LON TD9635_WIND TD9635_PRES TD9635_ROCI NEUMANN_LAT NEUMANN_LON NEUMANN_CLASS NEUMANN_WIND NEUMANN_PRES MLC_LAT MLC_LON MLC_CLASS MLC_WIND MLC_PRES USA_GUST BOM_GUST BOM_GUST_PER REUNION_GUST REUNION_GUST_PER USA_SEAHGT USA_SEARAD_NE USA_SEARAD_SE USA_SEARAD_SW USA_SEARAD_NW STORM_SPEED STORM_DIR
2000294N26300 2000 97 NA NA NADINE 2000-10-19 12:00:00 TS 26.2000 -59.9000 25 1009 hurdat_atl main 1050 1050 O_____________ hurdat_atl AL182000 26.2000 -59.9000 TD 25 1009 -1 14 19
2000294N26300 2000 97 NA NA NADINE 2000-10-19 15:00:00 TS 26.8551 -59.6556 main 1126 1126 P_____________ AL182000 26.8551 -59.6556 TD 27 1008 -1 14 19
2000294N26300 2000 97 NA NA NADINE 2000-10-19 18:00:00 TS 27.5000 -59.4000 30 1008 hurdat_atl main 1198 1198 O_____________ hurdat_atl AL182000 27.5000 -59.4000 TD 30 1008 -1 14 20
2000294N26300 2000 97 NA NA NADINE 2000-10-19 21:00:00 TS 28.1224 -59.1221 main 1270 1270 P_____________ AL182000 28.1224 -59.1221 TD 30 1008 -1 13 24
2000294N26300 2000 97 NA NA NADINE 2000-10-20 00:00:00 TS 28.7000 -58.8000 30 1008 hurdat_atl main 1342 1342 O_____________ hurdat_atl AL182000 28.7000 -58.8000 TD 30 1008 -1 13 29
2000294N26300 2000 97 NA NA NADINE 2000-10-20 03:00:00 TS 29.2375 -58.4150 main 1410 1410 P_____________ AL182000 29.2375 -58.4150 TD 30 1006 -1 12 35
2000294N26300 2000 97 NA NA NADINE 2000-10-20 06:00:00 TS 29.7000 -58.0000 30 1005 hurdat_atl main 1478 1478 O_____________ hurdat_atl AL182000 29.7000 -58.0000 TD 30 1005 -1 11 41
2000294N26300 2000 97 NA NA NADINE 2000-10-20 09:00:00 TS 30.0498 -57.6066 main 1527 1527 P_____________ AL182000 30.0498 -57.6066 TD 32 1004 -1 10 45
2000294N26300 2000 97 NA NA NADINE 2000-10-20 12:00:00 TS 30.4000 -57.2000 35 1003 hurdat_atl main 1586 1586 O_____________ hurdat_atl AL182000 30.4000 -57.2000 TS 35 1003 0 11 41
2000294N26300 2000 97 NA NA NADINE 2000-10-20 15:00:00 TS 30.8773 -56.7722 main 1589 1561 P_____________ AL182000 30.8773 -56.7722 TS 37 1001 0 13 38
2000294N26300 2000 97 NA NA NADINE 2000-10-20 18:00:00 TS 31.4000 -56.3000 40 1000 hurdat_atl main 1561 1530 O_____________ hurdat_atl AL182000 31.4000 -56.3000 TS 40 1000 0 13 39
2000294N26300 2000 97 NA NA NADINE 2000-10-20 21:00:00 TS 31.9068 -55.8091 main 1535 1512 P_____________ AL182000 31.9068 -55.8091 TS 45 999 0 14 43
2000294N26300 2000 97 NA NA NADINE 2000-10-21 00:00:00 TS 32.4000 -55.2000 50 999 hurdat_atl main 1512 1488 O_____________ hurdat_atl AL182000 32.4000 -55.2000 TS 50 999 0 16 52
2000294N26300 2000 97 NA NA NADINE 2000-10-21 03:00:00 TS 32.8659 -54.3579 main 1484 1471 P_____________ AL182000 32.8659 -54.3579 TS 50 999 0 17 58
2000294N26300 2000 97 NA NA NADINE 2000-10-21 06:00:00 TS 33.3000 -53.5000 50 1000 hurdat_atl main 1474 1435 O_____________ hurdat_atl AL182000 33.3000 -53.5000 TS 50 1000 0 15 56
2000294N26300 2000 97 NA NA NADINE 2000-10-21 09:00:00 TS 33.7143 -52.8466 main 1435 1392 P_____________ AL182000 33.7143 -52.8466 TS 50 1000 0 13 51
2000294N26300 2000 97 NA NA NADINE 2000-10-21 12:00:00 TS 34.1000 -52.3000 50 1000 hurdat_atl main 1393 1361 O_____________ hurdat_atl AL182000 34.1000 -52.3000 TS 50 1000 0 12 51
2000294N26300 2000 97 NA NA NADINE 2000-10-21 15:00:00 TS 34.4423 -51.7692 main 1362 1322 P_____________ AL182000 34.4423 -51.7692 TS 47 1000 0 11 50
2000294N26300 2000 97 NA NA NADINE 2000-10-21 18:00:00 TS 34.8000 -51.3000 45 1000 hurdat_atl main 1322 1281 O_____________ hurdat_atl AL182000 34.8000 -51.3000 TS 45 1000 0 10 42
2000294N26300 2000 97 NA NA NADINE 2000-10-21 21:00:00 TS 35.2041 -50.9354 main 1282 1233 P_____________ AL182000 35.2041 -50.9354 TS 42 1002 0 11 36
2000294N26300 2000 97 NA NA NADINE 2000-10-22 00:00:00 ET 35.7000 -50.5000 40 1004 hurdat_atl main 1233 1186 O_____________ hurdat_atl AL182000 35.7000 -50.5000 EX 40 1004 -4 14 40
2000294N26300 2000 97 NA NA NADINE 2000-10-22 03:00:00 ET 36.2672 -49.8375 main 1179 1119 P_____________ AL182000 36.2672 -49.8375 EX 40 1004 -4 18 43
2000294N26300 2000 97 NA NA NADINE 2000-10-22 06:00:00 ET 37.0000 -49.0000 40 1005 hurdat_atl main 1122 1053 O_____________ hurdat_atl AL182000 37.0000 -49.0000 EX 40 1005 -4 22 41
2000294N26300 2000 97 NA NA NADINE 2000-10-22 09:00:00 ET 37.9419 -48.0398 main 1056 988 P_____________ AL182000 37.9419 -48.0398 EX 37 1005 -4 25 38
2000294N26300 2000 97 NA NA NADINE 2000-10-22 12:00:00 ET 39.0000 -47.0000 35 1005 hurdat_atl main 983 O_____________ hurdat_atl AL182000 39.0000 -47.0000 EX 35 1005 -4 27 37

About IBTrACS Database

This database is a web-friendly format of International Best Track Archive for Climate Stewardship (IBTrACS), a global best track data archive curated by NOAA dating back to 1842.

Updated: 2021-10-21